sensor_id;sensor_type;location;lat;lon;timestamp;temperature;humidity
29453;DHT22;16424;50.956;5.320;2022-12-18T00:00:45;-4.40;99.90
29453;DHT22;16424;50.956;5.320;2022-12-18T00:03:13;-4.50;99.90
29453;DHT22;16424;50.956;5.320;2022-12-18T00:05:49;-4.80;99.90
29453;DHT22;16424;50.956;5.320;2022-12-18T00:08:15;-4.90;99.90
29453;DHT22;16424;50.956;5.320;2022-12-18T00:10:41;-5.00;99.90
29453;DHT22;16424;50.956;5.320;2022-12-18T00:13:06;-5.10;99.90
29453;DHT22;16424;50.956;5.320;2022-12-18T00:15:36;-5.10;99.90
29453;DHT22;16424;50.956;5.320;2022-12-18T00:18:02;-5.20;99.90
29453;DHT22;16424;50.956;5.320;2022-12-18T00:20:28;-5.10;99.90
29453;DHT22;16424;50.956;5.320;2022-12-18T00:22:54;-5.10;99.90
29453;DHT22;16424;50.956;5.320;2022-12-18T00:25:20;-5.10;99.90
29453;DHT22;16424;50.956;5.320;2022-12-18T00:27:45;-5.10;99.90
29453;DHT22;16424;50.956;5.320;2022-12-18T00:30:11;-5.10;99.90
29453;DHT22;16424;50.956;5.320;2022-12-18T00:32:37;-5.10;99.90
29453;DHT22;16424;50.956;5.320;2022-12-18T00:35:04;-5.00;99.90
29453;DHT22;16424;50.956;5.320;2022-12-18T00:37:30;-5.00;99.90
29453;DHT22;16424;50.956;5.320;2022-12-18T00:39:56;-4.90;99.90
29453;DHT22;16424;50.956;5.320;2022-12-18T00:42:21;-4.90;99.90
29453;DHT22;16424;50.956;5.320;2022-12-18T00:45:06;-4.90;99.90
29453;DHT22;16424;50.956;5.320;2022-12-18T00:47:31;-4.90;99.90
29453;DHT22;16424;50.956;5.320;2022-12-18T00:49:57;-4.90;99.90
29453;DHT22;16424;50.956;5.320;2022-12-18T00:52:22;-5.00;99.90
29453;DHT22;16424;50.956;5.320;2022-12-18T00:54:48;-5.10;99.90
29453;DHT22;16424;50.956;5.320;2022-12-18T00:57:14;-5.10;99.90
29453;DHT22;16424;50.956;5.320;2022-12-18T00:59:39;-5.20;99.90
29453;DHT22;16424;50.956;5.320;2022-12-18T01:02:05;-5.30;99.90
29453;DHT22;16424;50.956;5.320;2022-12-18T01:04:34;-5.30;99.90
29453;DHT22;16424;50.956;5.320;2022-12-18T01:07:00;-5.30;99.90
29453;DHT22;16424;50.956;5.320;2022-12-18T01:09:25;-5.30;99.90
29453;DHT22;16424;50.956;5.320;2022-12-18T01:11:51;-5.20;99.90
29453;DHT22;16424;50.956;5.320;2022-12-18T01:14:17;-5.30;99.90
29453;DHT22;16424;50.956;5.320;2022-12-18T01:16:42;-5.30;99.90
29453;DHT22;16424;50.956;5.320;2022-12-18T01:19:08;-5.20;99.90
29453;DHT22;16424;50.956;5.320;2022-12-18T01:21:34;-5.10;99.90
29453;DHT22;16424;50.956;5.320;2022-12-18T01:24:00;-5.00;99.90
29453;DHT22;16424;50.956;5.320;2022-12-18T01:26:26;-5.00;99.90
29453;DHT22;16424;50.956;5.320;2022-12-18T01:28:55;-5.20;99.90
29453;DHT22;16424;50.956;5.320;2022-12-18T01:31:24;-5.20;99.90
29453;DHT22;16424;50.956;5.320;2022-12-18T01:33:51;-5.20;99.90
29453;DHT22;16424;50.956;5.320;2022-12-18T01:38:43;-5.10;99.90
29453;DHT22;16424;50.956;5.320;2022-12-18T01:41:09;-5.10;99.90
29453;DHT22;16424;50.956;5.320;2022-12-18T01:44:46;-5.10;99.90
29453;DHT22;16424;50.956;5.320;2022-12-18T01:46:50;-5.10;99.90
29453;DHT22;16424;50.956;5.320;2022-12-18T01:49:15;-5.20;99.90
29453;DHT22;16424;50.956;5.320;2022-12-18T01:51:41;-5.20;99.90
29453;DHT22;16424;50.956;5.320;2022-12-18T01:54:07;-5.20;99.90
29453;DHT22;16424;50.956;5.320;2022-12-18T01:56:32;-5.20;99.90
29453;DHT22;16424;50.956;5.320;2022-12-18T01:59:06;-5.20;99.90
29453;DHT22;16424;50.956;5.320;2022-12-18T02:01:34;-5.20;99.90
29453;DHT22;16424;50.956;5.320;2022-12-18T02:04:33;-5.20;99.90
29453;DHT22;16424;50.956;5.320;2022-12-18T02:09:59;-5.10;99.90
29453;DHT22;16424;50.956;5.320;2022-12-18T02:12:31;-5.10;99.90
29453;DHT22;16424;50.956;5.320;2022-12-18T02:15:06;-5.00;99.90
29453;DHT22;16424;50.956;5.320;2022-12-18T02:17:43;-5.10;99.90
29453;DHT22;16424;50.956;5.320;2022-12-18T02:23:06;-5.20;99.90
29453;DHT22;16424;50.956;5.320;2022-12-18T02:26:05;-5.20;99.90
29453;DHT22;16424;50.956;5.320;2022-12-18T02:28:51;-5.40;99.90
29453;DHT22;16424;50.956;5.320;2022-12-18T02:31:23;-5.50;99.90
29453;DHT22;16424;50.956;5.320;2022-12-18T02:33:53;-5.50;99.90
29453;DHT22;16424;50.956;5.320;2022-12-18T02:36:21;-5.60;99.90
29453;DHT22;16424;50.956;5.320;2022-12-18T02:38:47;-5.60;99.90
29453;DHT22;16424;50.956;5.320;2022-12-18T02:41:14;-5.60;99.90
29453;DHT22;16424;50.956;5.320;2022-12-18T02:43:50;-5.60;99.90
29453;DHT22;16424;50.956;5.320;2022-12-18T02:46:32;-5.70;99.90
29453;DHT22;16424;50.956;5.320;2022-12-18T02:51:49;-5.80;99.90
29453;DHT22;16424;50.956;5.320;2022-12-18T02:54:38;-5.70;99.90
29453;DHT22;16424;50.956;5.320;2022-12-18T02:57:18;-5.70;99.90
29453;DHT22;16424;50.956;5.320;2022-12-18T02:59:56;-5.70;99.90
29453;DHT22;16424;50.956;5.320;2022-12-18T03:02:38;-5.80;99.90
29453;DHT22;16424;50.956;5.320;2022-12-18T03:05:16;-5.80;99.90
29453;DHT22;16424;50.956;5.320;2022-12-18T03:07:51;-5.80;99.90
29453;DHT22;16424;50.956;5.320;2022-12-18T03:10:23;-6.00;99.90
29453;DHT22;16424;50.956;5.320;2022-12-18T03:13:03;-6.00;99.90
29453;DHT22;16424;50.956;5.320;2022-12-18T03:15:51;-6.00;99.90
29453;DHT22;16424;50.956;5.320;2022-12-18T03:18:41;-5.80;99.90
29453;DHT22;16424;50.956;5.320;2022-12-18T03:21:09;-5.70;99.90
29453;DHT22;16424;50.956;5.320;2022-12-18T03:23:44;-5.70;99.90
29453;DHT22;16424;50.956;5.320;2022-12-18T03:26:18;-5.60;99.90
29453;DHT22;16424;50.956;5.320;2022-12-18T03:28:51;-5.60;99.90
29453;DHT22;16424;50.956;5.320;2022-12-18T03:31:20;-5.60;99.90
29453;DHT22;16424;50.956;5.320;2022-12-18T03:34:01;-5.50;99.90
29453;DHT22;16424;50.956;5.320;2022-12-18T03:36:28;-5.50;99.90
29453;DHT22;16424;50.956;5.320;2022-12-18T03:38:57;-5.60;99.90
29453;DHT22;16424;50.956;5.320;2022-12-18T03:41:33;-5.70;99.90
29453;DHT22;16424;50.956;5.320;2022-12-18T03:44:21;-5.70;99.90
29453;DHT22;16424;50.956;5.320;2022-12-18T03:49:44;-5.60;99.90
29453;DHT22;16424;50.956;5.320;2022-12-18T03:54:51;-5.80;99.90
29453;DHT22;16424;50.956;5.320;2022-12-18T03:57:24;-5.90;99.90
29453;DHT22;16424;50.956;5.320;2022-12-18T03:59:56;-6.00;99.90
29453;DHT22;16424;50.956;5.320;2022-12-18T04:02:23;-6.00;99.90
29453;DHT22;16424;50.956;5.320;2022-12-18T04:04:52;-6.00;99.90
29453;DHT22;16424;50.956;5.320;2022-12-18T04:07:20;-6.10;99.90
29453;DHT22;16424;50.956;5.320;2022-12-18T04:09:48;-6.00;99.90
29453;DHT22;16424;50.956;5.320;2022-12-18T04:12:14;-6.00;99.90
29453;DHT22;16424;50.956;5.320;2022-12-18T04:14:39;-6.10;99.90
29453;DHT22;16424;50.956;5.320;2022-12-18T04:17:06;-6.10;99.90
29453;DHT22;16424;50.956;5.320;2022-12-18T04:19:31;-6.20;99.90
29453;DHT22;16424;50.956;5.320;2022-12-18T04:21:57;-6.30;99.90
29453;DHT22;16424;50.956;5.320;2022-12-18T04:24:23;-6.30;99.90
29453;DHT22;16424;50.956;5.320;2022-12-18T04:26:49;-6.30;99.90
29453;DHT22;16424;50.956;5.320;2022-12-18T04:29:14;-6.30;99.90
29453;DHT22;16424;50.956;5.320;2022-12-18T04:31:43;-6.40;99.90
29453;DHT22;16424;50.956;5.320;2022-12-18T04:34:09;-6.40;99.90
29453;DHT22;16424;50.956;5.320;2022-12-18T04:36:34;-6.40;99.90
29453;DHT22;16424;50.956;5.320;2022-12-18T04:39:00;-6.50;99.90
29453;DHT22;16424;50.956;5.320;2022-12-18T04:41:25;-6.50;99.90
29453;DHT22;16424;50.956;5.320;2022-12-18T04:43:51;-6.50;99.90
29453;DHT22;16424;50.956;5.320;2022-12-18T04:46:17;-6.40;99.90
29453;DHT22;16424;50.956;5.320;2022-12-18T04:48:45;-6.30;99.90
29453;DHT22;16424;50.956;5.320;2022-12-18T04:51:11;-6.30;99.90
29453;DHT22;16424;50.956;5.320;2022-12-18T04:53:37;-6.40;99.90
29453;DHT22;16424;50.956;5.320;2022-12-18T04:56:14;-6.40;99.90
29453;DHT22;16424;50.956;5.320;2022-12-18T04:58:41;-6.50;99.90
29453;DHT22;16424;50.956;5.320;2022-12-18T05:01:07;-6.60;99.90
29453;DHT22;16424;50.956;5.320;2022-12-18T05:03:34;-6.60;99.90
29453;DHT22;16424;50.956;5.320;2022-12-18T05:06:00;-6.50;99.90
29453;DHT22;16424;50.956;5.320;2022-12-18T05:08:26;-6.40;99.90
29453;DHT22;16424;50.956;5.320;2022-12-18T05:11:05;-6.40;99.90
29453;DHT22;16424;50.956;5.320;2022-12-18T05:13:34;-6.30;99.90
29453;DHT22;16424;50.956;5.320;2022-12-18T05:16:00;-6.20;99.90
29453;DHT22;16424;50.956;5.320;2022-12-18T05:18:26;-6.20;99.90
29453;DHT22;16424;50.956;5.320;2022-12-18T05:20:53;-6.20;99.90
29453;DHT22;16424;50.956;5.320;2022-12-18T05:23:19;-6.20;99.90
29453;DHT22;16424;50.956;5.320;2022-12-18T05:26:05;-6.20;99.90
29453;DHT22;16424;50.956;5.320;2022-12-18T05:28:33;-6.30;99.90
29453;DHT22;16424;50.956;5.320;2022-12-18T05:31:01;-6.30;99.90
29453;DHT22;16424;50.956;5.320;2022-12-18T05:33:30;-6.30;99.90
29453;DHT22;16424;50.956;5.320;2022-12-18T05:35:58;-6.40;99.90
29453;DHT22;16424;50.956;5.320;2022-12-18T05:38:30;-6.40;99.90
29453;DHT22;16424;50.956;5.320;2022-12-18T05:40:56;-6.30;99.90
29453;DHT22;16424;50.956;5.320;2022-12-18T05:43:23;-6.30;99.90
29453;DHT22;16424;50.956;5.320;2022-12-18T05:45:49;-6.30;99.90
29453;DHT22;16424;50.956;5.320;2022-12-18T05:48:16;-6.20;99.90
29453;DHT22;16424;50.956;5.320;2022-12-18T05:50:43;-6.20;99.90
29453;DHT22;16424;50.956;5.320;2022-12-18T05:53:11;-6.20;99.90
29453;DHT22;16424;50.956;5.320;2022-12-18T05:55:39;-6.20;99.90
29453;DHT22;16424;50.956;5.320;2022-12-18T05:58:07;-6.40;99.90
29453;DHT22;16424;50.956;5.320;2022-12-18T06:00:34;-6.50;99.90
29453;DHT22;16424;50.956;5.320;2022-12-18T06:03:01;-6.50;99.90
29453;DHT22;16424;50.956;5.320;2022-12-18T06:05:27;-6.40;99.90
29453;DHT22;16424;50.956;5.320;2022-12-18T06:07:53;-6.40;99.90
29453;DHT22;16424;50.956;5.320;2022-12-18T06:10:19;-6.30;99.90
29453;DHT22;16424;50.956;5.320;2022-12-18T06:12:45;-6.30;99.90
29453;DHT22;16424;50.956;5.320;2022-12-18T06:15:11;-6.20;99.90
29453;DHT22;16424;50.956;5.320;2022-12-18T06:17:37;-6.30;99.90
29453;DHT22;16424;50.956;5.320;2022-12-18T06:20:03;-6.30;99.90
29453;DHT22;16424;50.956;5.320;2022-12-18T06:22:31;-6.20;99.90
29453;DHT22;16424;50.956;5.320;2022-12-18T06:24:57;-6.10;99.90
29453;DHT22;16424;50.956;5.320;2022-12-18T06:27:23;-6.10;99.90
29453;DHT22;16424;50.956;5.320;2022-12-18T06:29:49;-6.20;99.90
29453;DHT22;16424;50.956;5.320;2022-12-18T06:32:14;-6.20;99.90
29453;DHT22;16424;50.956;5.320;2022-12-18T06:34:40;-6.30;99.90
29453;DHT22;16424;50.956;5.320;2022-12-18T06:37:06;-6.30;99.90
29453;DHT22;16424;50.956;5.320;2022-12-18T06:39:32;-6.30;99.90
29453;DHT22;16424;50.956;5.320;2022-12-18T06:41:57;-6.30;99.90
29453;DHT22;16424;50.956;5.320;2022-12-18T06:44:24;-6.20;99.90
29453;DHT22;16424;50.956;5.320;2022-12-18T06:46:49;-6.20;99.90
29453;DHT22;16424;50.956;5.320;2022-12-18T06:49:23;-6.20;99.90
29453;DHT22;16424;50.956;5.320;2022-12-18T06:51:49;-6.30;99.90
29453;DHT22;16424;50.956;5.320;2022-12-18T06:54:14;-6.30;99.90
29453;DHT22;16424;50.956;5.320;2022-12-18T06:56:40;-6.30;99.90
29453;DHT22;16424;50.956;5.320;2022-12-18T06:59:05;-6.20;99.90
29453;DHT22;16424;50.956;5.320;2022-12-18T07:01:31;-6.00;99.90
29453;DHT22;16424;50.956;5.320;2022-12-18T07:03:57;-6.00;99.90
29453;DHT22;16424;50.956;5.320;2022-12-18T07:06:26;-6.10;99.90
29453;DHT22;16424;50.956;5.320;2022-12-18T07:08:53;-6.20;99.90
29453;DHT22;16424;50.956;5.320;2022-12-18T07:11:19;-6.30;99.90
29453;DHT22;16424;50.956;5.320;2022-12-18T07:13:45;-6.40;99.90
29453;DHT22;16424;50.956;5.320;2022-12-18T07:16:13;-6.40;99.90
29453;DHT22;16424;50.956;5.320;2022-12-18T07:18:39;-6.50;99.90
29453;DHT22;16424;50.956;5.320;2022-12-18T07:21:10;-6.60;99.90
29453;DHT22;16424;50.956;5.320;2022-12-18T07:23:36;-6.70;99.90
29453;DHT22;16424;50.956;5.320;2022-12-18T07:26:07;-6.60;99.90
29453;DHT22;16424;50.956;5.320;2022-12-18T07:28:34;-6.50;99.90
29453;DHT22;16424;50.956;5.320;2022-12-18T07:31:05;-6.40;99.90
29453;DHT22;16424;50.956;5.320;2022-12-18T07:33:33;-6.30;99.90
29453;DHT22;16424;50.956;5.320;2022-12-18T07:35:59;-6.20;99.90
29453;DHT22;16424;50.956;5.320;2022-12-18T07:38:25;-6.10;99.90
29453;DHT22;16424;50.956;5.320;2022-12-18T07:40:51;-6.00;99.90
29453;DHT22;16424;50.956;5.320;2022-12-18T07:43:17;-5.70;99.90
29453;DHT22;16424;50.956;5.320;2022-12-18T07:45:43;-5.60;99.90
29453;DHT22;16424;50.956;5.320;2022-12-18T07:48:08;-5.70;99.90
29453;DHT22;16424;50.956;5.320;2022-12-18T07:50:34;-6.00;99.90
29453;DHT22;16424;50.956;5.320;2022-12-18T07:53:00;-6.20;99.90
29453;DHT22;16424;50.956;5.320;2022-12-18T07:55:29;-6.20;99.90
29453;DHT22;16424;50.956;5.320;2022-12-18T07:57:55;-6.20;99.90
29453;DHT22;16424;50.956;5.320;2022-12-18T08:00:21;-6.30;99.90
29453;DHT22;16424;50.956;5.320;2022-12-18T08:02:47;-6.20;99.90
29453;DHT22;16424;50.956;5.320;2022-12-18T08:05:13;-6.00;99.90
29453;DHT22;16424;50.956;5.320;2022-12-18T08:07:39;-5.70;99.90
29453;DHT22;16424;50.956;5.320;2022-12-18T08:10:05;-5.30;99.90
29453;DHT22;16424;50.956;5.320;2022-12-18T08:12:31;-5.00;99.90
29453;DHT22;16424;50.956;5.320;2022-12-18T08:14:57;-4.80;99.90
29453;DHT22;16424;50.956;5.320;2022-12-18T08:17:23;-4.50;99.90
29453;DHT22;16424;50.956;5.320;2022-12-18T08:19:48;-4.40;99.90
29453;DHT22;16424;50.956;5.320;2022-12-18T08:22:14;-4.30;99.90
29453;DHT22;16424;50.956;5.320;2022-12-18T08:24:40;-4.20;99.90
29453;DHT22;16424;50.956;5.320;2022-12-18T08:27:05;-4.20;99.90
29453;DHT22;16424;50.956;5.320;2022-12-18T08:29:31;-4.10;99.90
29453;DHT22;16424;50.956;5.320;2022-12-18T08:31:57;-4.00;99.90
29453;DHT22;16424;50.956;5.320;2022-12-18T08:34:25;-3.70;99.90
29453;DHT22;16424;50.956;5.320;2022-12-18T08:36:51;-3.20;99.90
29453;DHT22;16424;50.956;5.320;2022-12-18T08:39:17;-3.00;99.90
29453;DHT22;16424;50.956;5.320;2022-12-18T08:41:45;-2.70;99.90
29453;DHT22;16424;50.956;5.320;2022-12-18T08:44:31;-2.40;99.90
29453;DHT22;16424;50.956;5.320;2022-12-18T08:47:02;-2.50;99.90
29453;DHT22;16424;50.956;5.320;2022-12-18T08:49:28;-2.40;99.90
29453;DHT22;16424;50.956;5.320;2022-12-18T08:51:55;-2.10;99.90
29453;DHT22;16424;50.956;5.320;2022-12-18T08:54:22;-1.80;99.90
29453;DHT22;16424;50.956;5.320;2022-12-18T08:56:48;-1.50;99.90
29453;DHT22;16424;50.956;5.320;2022-12-18T08:59:15;-1.20;99.90
29453;DHT22;16424;50.956;5.320;2022-12-18T09:01:41;-1.20;99.90
29453;DHT22;16424;50.956;5.320;2022-12-18T09:04:08;-1.10;99.90
29453;DHT22;16424;50.956;5.320;2022-12-18T09:06:34;-0.90;99.90
29453;DHT22;16424;50.956;5.320;2022-12-18T09:09:00;-1.30;99.90
29453;DHT22;16424;50.956;5.320;2022-12-18T09:11:28;-1.70;99.90
29453;DHT22;16424;50.956;5.320;2022-12-18T09:13:54;-1.70;99.90
29453;DHT22;16424;50.956;5.320;2022-12-18T09:16:20;-2.00;99.90
29453;DHT22;16424;50.956;5.320;2022-12-18T09:18:47;-2.20;99.90
29453;DHT22;16424;50.956;5.320;2022-12-18T09:21:20;-2.30;99.90
29453;DHT22;16424;50.956;5.320;2022-12-18T09:23:54;-2.40;99.90
29453;DHT22;16424;50.956;5.320;2022-12-18T09:26:20;-2.30;99.90
29453;DHT22;16424;50.956;5.320;2022-12-18T09:28:46;-2.20;99.90
29453;DHT22;16424;50.956;5.320;2022-12-18T09:31:12;-2.20;99.90
29453;DHT22;16424;50.956;5.320;2022-12-18T09:33:38;-2.00;99.90
29453;DHT22;16424;50.956;5.320;2022-12-18T09:36:06;-2.00;99.90
29453;DHT22;16424;50.956;5.320;2022-12-18T09:38:32;-2.10;99.90
29453;DHT22;16424;50.956;5.320;2022-12-18T09:43:52;-2.70;99.90
29453;DHT22;16424;50.956;5.320;2022-12-18T09:46:25;-2.40;99.90
29453;DHT22;16424;50.956;5.320;2022-12-18T09:48:54;-2.00;99.90
29453;DHT22;16424;50.956;5.320;2022-12-18T09:51:33;-1.70;99.90
29453;DHT22;16424;50.956;5.320;2022-12-18T09:54:05;-1.60;99.90
29453;DHT22;16424;50.956;5.320;2022-12-18T09:56:38;-1.40;99.90
29453;DHT22;16424;50.956;5.320;2022-12-18T09:59:04;-1.30;99.90
29453;DHT22;16424;50.956;5.320;2022-12-18T10:01:32;-1.30;99.90
29453;DHT22;16424;50.956;5.320;2022-12-18T10:03:59;-1.10;99.90
29453;DHT22;16424;50.956;5.320;2022-12-18T10:06:30;-1.20;99.90
29453;DHT22;16424;50.956;5.320;2022-12-18T10:09:09;-1.50;99.90
29453;DHT22;16424;50.956;5.320;2022-12-18T10:20:17;-0.80;99.90
29453;DHT22;16424;50.956;5.320;2022-12-18T10:28:13;-0.80;99.90
29453;DHT22;16424;50.956;5.320;2022-12-18T10:30:40;-1.10;99.90
29453;DHT22;16424;50.956;5.320;2022-12-18T10:33:08;-1.20;99.90
29453;DHT22;16424;50.956;5.320;2022-12-18T10:35:35;-1.30;99.90
29453;DHT22;16424;50.956;5.320;2022-12-18T10:43:15;-0.90;99.90
29453;DHT22;16424;50.956;5.320;2022-12-18T10:45:42;-1.20;99.90
29453;DHT22;16424;50.956;5.320;2022-12-18T10:51:33;-1.40;99.90
29453;DHT22;16424;50.956;5.320;2022-12-18T11:07:13;-1.20;99.90
29453;DHT22;16424;50.956;5.320;2022-12-18T11:09:40;-1.00;99.90
29453;DHT22;16424;50.956;5.320;2022-12-18T11:12:15;-0.90;99.90
29453;DHT22;16424;50.956;5.320;2022-12-18T11:14:48;-0.80;99.90
29453;DHT22;16424;50.956;5.320;2022-12-18T11:17:41;-0.70;99.90
29453;DHT22;16424;50.956;5.320;2022-12-18T11:20:21;-0.80;99.90
29453;DHT22;16424;50.956;5.320;2022-12-18T11:22:57;-0.70;99.90
29453;DHT22;16424;50.956;5.320;2022-12-18T11:25:23;-0.50;99.90
29453;DHT22;16424;50.956;5.320;2022-12-18T11:27:53;-0.20;99.90
29453;DHT22;16424;50.956;5.320;2022-12-18T11:30:29;0.00;99.90
29453;DHT22;16424;50.956;5.320;2022-12-18T11:38:26;0.20;99.90
29453;DHT22;16424;50.956;5.320;2022-12-18T11:41:02;0.20;99.90
29453;DHT22;16424;50.956;5.320;2022-12-18T11:43:38;-0.10;99.90
29453;DHT22;16424;50.956;5.320;2022-12-18T11:46:23;-0.10;99.90
29453;DHT22;16424;50.956;5.320;2022-12-18T11:48:54;0.10;99.90
29453;DHT22;16424;50.956;5.320;2022-12-18T11:51:33;0.20;99.90
29453;DHT22;16424;50.956;5.320;2022-12-18T11:54:01;0.20;99.90
29453;DHT22;16424;50.956;5.320;2022-12-18T11:56:41;0.30;99.90
29453;DHT22;16424;50.956;5.320;2022-12-18T11:59:16;0.20;99.90
29453;DHT22;16424;50.956;5.320;2022-12-18T12:01:55;0.20;99.90
29453;DHT22;16424;50.956;5.320;2022-12-18T12:07:34;0.30;99.90
29453;DHT22;16424;50.956;5.320;2022-12-18T12:18:08;0.80;99.90
29453;DHT22;16424;50.956;5.320;2022-12-18T12:23:26;0.90;99.90
29453;DHT22;16424;50.956;5.320;2022-12-18T12:26:11;1.20;99.90
29453;DHT22;16424;50.956;5.320;2022-12-18T12:40:01;1.20;99.90
29453;DHT22;16424;50.956;5.320;2022-12-18T12:42:34;1.10;99.90
29453;DHT22;16424;50.956;5.320;2022-12-18T12:45:27;1.10;99.90
29453;DHT22;16424;50.956;5.320;2022-12-18T12:47:54;1.10;99.90
29453;DHT22;16424;50.956;5.320;2022-12-18T12:50:21;1.20;99.90
29453;DHT22;16424;50.956;5.320;2022-12-18T12:52:54;1.30;99.90
29453;DHT22;16424;50.956;5.320;2022-12-18T12:55:26;1.40;99.90
29453;DHT22;16424;50.956;5.320;2022-12-18T12:58:14;1.40;99.90
29453;DHT22;16424;50.956;5.320;2022-12-18T13:06:49;1.40;99.90
29453;DHT22;16424;50.956;5.320;2022-12-18T13:09:15;1.30;99.90
29453;DHT22;16424;50.956;5.320;2022-12-18T13:11:47;1.50;99.90
29453;DHT22;16424;50.956;5.320;2022-12-18T13:14:40;1.70;99.90
29453;DHT22;16424;50.956;5.320;2022-12-18T13:19:51;1.40;99.90
29453;DHT22;16424;50.956;5.320;2022-12-18T13:22:22;1.50;99.90
29453;DHT22;16424;50.956;5.320;2022-12-18T13:24:49;1.70;99.90
29453;DHT22;16424;50.956;5.320;2022-12-18T13:40:59;2.00;99.90
29453;DHT22;16424;50.956;5.320;2022-12-18T13:43:27;2.00;99.90
29453;DHT22;16424;50.956;5.320;2022-12-18T13:46:06;2.20;99.90
29453;DHT22;16424;50.956;5.320;2022-12-18T13:48:59;2.10;99.90
29453;DHT22;16424;50.956;5.320;2022-12-18T13:51:26;2.00;99.90
29453;DHT22;16424;50.956;5.320;2022-12-18T13:54:06;2.20;99.90
29453;DHT22;16424;50.956;5.320;2022-12-18T13:56:44;2.10;99.90
29453;DHT22;16424;50.956;5.320;2022-12-18T13:59:14;2.20;99.90
29453;DHT22;16424;50.956;5.320;2022-12-18T14:02:28;2.20;99.90
29453;DHT22;16424;50.956;5.320;2022-12-18T14:04:35;2.30;99.90
29453;DHT22;16424;50.956;5.320;2022-12-18T14:07:28;2.30;99.90
29453;DHT22;16424;50.956;5.320;2022-12-18T14:09:59;2.30;99.90
29453;DHT22;16424;50.956;5.320;2022-12-18T14:12:33;2.50;99.90
29453;DHT22;16424;50.956;5.320;2022-12-18T14:17:56;2.10;99.90
29453;DHT22;16424;50.956;5.320;2022-12-18T14:20:23;1.70;99.90
29453;DHT22;16424;50.956;5.320;2022-12-18T14:22:49;1.90;99.90
29453;DHT22;16424;50.956;5.320;2022-12-18T14:25:17;1.80;99.90
29453;DHT22;16424;50.956;5.320;2022-12-18T14:28:12;1.70;99.90
29453;DHT22;16424;50.956;5.320;2022-12-18T14:30:32;1.70;99.90
29453;DHT22;16424;50.956;5.320;2022-12-18T14:33:02;1.60;99.90
29453;DHT22;16424;50.956;5.320;2022-12-18T14:35:28;1.90;99.90
29453;DHT22;16424;50.956;5.320;2022-12-18T14:37:59;2.00;99.90
29453;DHT22;16424;50.956;5.320;2022-12-18T14:40:32;2.10;99.90
29453;DHT22;16424;50.956;5.320;2022-12-18T14:42:58;1.90;99.90
29453;DHT22;16424;50.956;5.320;2022-12-18T14:48:00;1.80;99.90
29453;DHT22;16424;50.956;5.320;2022-12-18T14:50:26;1.90;99.90
29453;DHT22;16424;50.956;5.320;2022-12-18T14:52:52;1.90;99.90
29453;DHT22;16424;50.956;5.320;2022-12-18T14:55:19;2.00;99.90
29453;DHT22;16424;50.956;5.320;2022-12-18T14:57:50;2.10;99.90
29453;DHT22;16424;50.956;5.320;2022-12-18T15:00:20;2.00;99.90
29453;DHT22;16424;50.956;5.320;2022-12-18T15:02:56;1.70;99.90
29453;DHT22;16424;50.956;5.320;2022-12-18T15:05:31;1.50;99.90
29453;DHT22;16424;50.956;5.320;2022-12-18T15:07:58;1.50;99.90
29453;DHT22;16424;50.956;5.320;2022-12-18T15:10:29;1.40;99.90
29453;DHT22;16424;50.956;5.320;2022-12-18T15:20:27;1.40;99.90
29453;DHT22;16424;50.956;5.320;2022-12-18T15:22:56;1.50;99.90
29453;DHT22;16424;50.956;5.320;2022-12-18T15:25:32;1.40;99.90
29453;DHT22;16424;50.956;5.320;2022-12-18T15:27:58;1.40;99.90
29453;DHT22;16424;50.956;5.320;2022-12-18T15:30:25;1.40;99.90
29453;DHT22;16424;50.956;5.320;2022-12-18T15:32:52;1.50;99.90
29453;DHT22;16424;50.956;5.320;2022-12-18T15:35:24;1.60;99.90
29453;DHT22;16424;50.956;5.320;2022-12-18T15:37:51;1.60;99.90
29453;DHT22;16424;50.956;5.320;2022-12-18T15:40:20;1.70;99.90
29453;DHT22;16424;50.956;5.320;2022-12-18T15:42:46;1.80;99.90
29453;DHT22;16424;50.956;5.320;2022-12-18T15:45:30;1.60;99.90
29453;DHT22;16424;50.956;5.320;2022-12-18T15:47:57;1.50;99.90
29453;DHT22;16424;50.956;5.320;2022-12-18T15:50:23;1.80;99.90
29453;DHT22;16424;50.956;5.320;2022-12-18T15:52:51;1.70;99.90
29453;DHT22;16424;50.956;5.320;2022-12-18T15:55:20;1.90;99.90
29453;DHT22;16424;50.956;5.320;2022-12-18T15:58:06;1.90;99.90
29453;DHT22;16424;50.956;5.320;2022-12-18T16:00:33;1.80;99.90
29453;DHT22;16424;50.956;5.320;2022-12-18T16:02:59;1.80;99.90
29453;DHT22;16424;50.956;5.320;2022-12-18T16:05:26;1.70;99.90
29453;DHT22;16424;50.956;5.320;2022-12-18T16:07:51;1.70;99.90
29453;DHT22;16424;50.956;5.320;2022-12-18T16:10:17;1.80;99.90
29453;DHT22;16424;50.956;5.320;2022-12-18T16:12:43;2.00;99.90
29453;DHT22;16424;50.956;5.320;2022-12-18T16:15:12;2.00;99.90
29453;DHT22;16424;50.956;5.320;2022-12-18T16:17:39;2.00;99.90
29453;DHT22;16424;50.956;5.320;2022-12-18T16:20:16;1.80;99.90
29453;DHT22;16424;50.956;5.320;2022-12-18T16:22:43;1.90;99.90
29453;DHT22;16424;50.956;5.320;2022-12-18T16:25:20;2.00;99.90
29453;DHT22;16424;50.956;5.320;2022-12-18T16:27:46;2.00;99.90
29453;DHT22;16424;50.956;5.320;2022-12-18T16:30:17;1.90;99.90
29453;DHT22;16424;50.956;5.320;2022-12-18T16:32:43;1.90;99.90
29453;DHT22;16424;50.956;5.320;2022-12-18T16:35:11;2.00;99.90
29453;DHT22;16424;50.956;5.320;2022-12-18T16:37:37;2.00;99.90
29453;DHT22;16424;50.956;5.320;2022-12-18T17:36:58;2.10;99.90
29453;DHT22;16424;50.956;5.320;2022-12-18T17:39:24;2.20;99.90
29453;DHT22;16424;50.956;5.320;2022-12-18T21:48:18;2.80;99.90
29453;DHT22;16424;50.956;5.320;2022-12-18T21:50:44;2.90;99.90
29453;DHT22;16424;50.956;5.320;2022-12-18T21:53:10;2.70;99.90
29453;DHT22;16424;50.956;5.320;2022-12-18T21:55:35;2.70;99.90
29453;DHT22;16424;50.956;5.320;2022-12-18T21:58:01;2.70;99.90
29453;DHT22;16424;50.956;5.320;2022-12-18T22:00:26;2.70;99.90
29453;DHT22;16424;50.956;5.320;2022-12-18T22:02:52;2.80;99.90
29453;DHT22;16424;50.956;5.320;2022-12-18T22:05:18;2.90;99.90
29453;DHT22;16424;50.956;5.320;2022-12-18T22:07:43;3.00;99.90
29453;DHT22;16424;50.956;5.320;2022-12-18T22:10:09;3.00;99.90
29453;DHT22;16424;50.956;5.320;2022-12-18T22:12:35;3.10;99.90
29453;DHT22;16424;50.956;5.320;2022-12-18T22:15:02;3.20;99.90
29453;DHT22;16424;50.956;5.320;2022-12-18T22:17:28;3.20;99.90
29453;DHT22;16424;50.956;5.320;2022-12-18T22:19:54;3.10;99.90
29453;DHT22;16424;50.956;5.320;2022-12-18T22:22:21;3.10;99.90
29453;DHT22;16424;50.956;5.320;2022-12-18T22:24:47;3.20;99.90
29453;DHT22;16424;50.956;5.320;2022-12-18T22:27:12;3.30;99.90
29453;DHT22;16424;50.956;5.320;2022-12-18T22:29:38;3.20;99.90
29453;DHT22;16424;50.956;5.320;2022-12-18T22:32:22;3.30;99.90
29453;DHT22;16424;50.956;5.320;2022-12-18T22:34:48;3.20;99.90
29453;DHT22;16424;50.956;5.320;2022-12-18T22:37:13;3.20;99.90
29453;DHT22;16424;50.956;5.320;2022-12-18T22:39:39;3.30;99.90
29453;DHT22;16424;50.956;5.320;2022-12-18T22:42:05;3.30;99.90
29453;DHT22;16424;50.956;5.320;2022-12-18T22:44:31;3.30;99.90
29453;DHT22;16424;50.956;5.320;2022-12-18T22:46:56;3.30;99.90
29453;DHT22;16424;50.956;5.320;2022-12-18T22:49:23;3.30;99.90
29453;DHT22;16424;50.956;5.320;2022-12-18T22:51:53;3.40;99.90
29453;DHT22;16424;50.956;5.320;2022-12-18T22:54:20;3.40;99.90